Latest Weather Observations for Longreach

IDQ60801

Issued at 12:43 pm EST Saturday 1 October 2022 (issued every 10 minutes, with the page automatically refreshed every 10 minutes)

About weather observations | Map of weather stations | Latest weather observations for QLD | Other Formats
Station Details ID: 036031 Name: LONGREACH AERO Lat: -23.44 Lon: 144.28 Height: 192.2 m
Data from the previous 72 hours. | See also: Recent months at Longreach
Date/Time
EST
Temp
°C
App
Temp
°C
Dew
Point
°C
Rel
Hum
%
Delta-T
°C
Wind Press
QNH
hPa
Press
MSL
hPa
Rain since
9am
mm
Dir  Spd
km/h
Gust
km/h
Spd
kts
Gust
kts
01/12:30pm 29.1 26.2 2.4 18 13.3 WNW 7 15 4 8 1013.5 1012.5 0.0
01/12:00pm 29.3 26.1 3.3 19 13.2 NNE 9 15 5 8 1014.0 1013.0 0.0
01/11:30am 28.8 25.2 2.9 19 13.0 WSW 11 17 6 9 1014.8 1013.8 0.0
01/11:00am 28.6 25.7 4.8 22 12.3 SSW 9 13 5 7 1015.5 1014.4 0.0
01/10:30am 27.5 25.4 6.8 27 11.0 W 7 13 4 7 1015.9 1014.9 0.0
01/10:00am 25.8 23.8 6.4 29 10.2 N 6 9 3 5 1016.2 1015.2 0.0
01/09:30am 24.7 22.3 6.9 32 9.4 ESE 9 13 5 7 1016.3 1015.6 0.0
01/09:00am 23.2 20.6 7.7 37 8.2 E 11 15 6 8 1016.4 1015.7 0.0
01/08:30am 21.6 18.6 7.8 41 7.2 ESE 13 19 7 10 1016.4 1015.7 0.0
01/08:00am 19.7 15.9 7.4 45 6.3 SE 17 22 9 12 1016.1 1015.4 0.0
01/07:30am 17.3 13.5 7.6 53 4.9 SE 17 22 9 12 1015.6 1014.9 0.0
01/07:00am 14.0 9.9 6.4 60 3.7 SE 17 24 9 13 1015.3 1014.6 0.0
01/06:30am 13.1 9.0 6.0 62 3.4 SE 17 20 9 11 1014.9 1014.2 0.0
01/06:00am 12.9 9.9 5.8 62 3.4 SSE 11 15 6 8 1014.8 1014.1 0.0
01/05:30am 12.7 9.6 5.4 61 3.4 SE 11 13 6 7 1014.6 1013.9 0.0
01/05:00am 13.3 9.8 5.5 59 3.7 SE 13 17 7 9 1014.3 1013.6 0.0
01/04:30am 13.2 9.2 5.1 58 3.8 SE 15 17 8 9 1013.8 1013.1 0.0
01/04:00am 13.3 9.3 5.0 57 3.9 SE 15 17 8 9 1013.7 1013.0 0.0
01/03:30am 14.2 9.8 5.0 54 4.3 SE 17 19 9 10 1013.7 1013.0 0.0
01/03:00am 14.1 9.7 4.7 53 4.4 SE 17 19 9 10 1013.8 1013.1 0.0
01/02:30am 14.0 9.6 4.6 53 4.4 SE 17 19 9 10 1014.2 1013.5 0.0
01/02:00am 14.0 9.9 4.3 52 4.5 SE 15 19 8 10 1014.6 1013.9 0.0
01/01:30am 13.6 9.5 4.2 53 4.3 SSE 15 15 8 8 1015.2 1014.5 0.0
01/01:00am 14.7 10.9 4.1 49 4.9 SE 13 13 7 7 1015.4 1014.7 0.0
01/12:30am 15.2 11.5 4.3 48 5.1 SE 13 13 7 7 1015.7 1015.0 0.0
01/12:00am 15.9 12.2 4.3 46 5.5 SE 13 15 7 8 1015.8 1015.1 0.0
 
Date/Time
EST
Temp
°C
App
Temp
°C
Dew
Point
°C
Rel
Hum
%
Delta-T
°C
Wind Press
QNH
hPa
Press
MSL
hPa
Rain since
9am
mm
Dir  Spd
km/h
Gust
km/h
Spd
kts
Gust
kts
30/11:30pm 15.6 12.3 4.3 47 5.3 SE 11 13 6 7 1016.1 1015.4 0.0
30/11:00pm 15.5 11.8 4.3 47 5.3 SSE 13 13 7 7 1016.2 1015.5 0.0
30/10:30pm 17.1 13.7 4.1 42 6.2 SE 11 13 6 7 1016.3 1015.6 0.0
30/10:00pm 18.0 14.6 4.2 40 6.6 SSE 11 11 6 6 1016.7 1016.0 0.0
30/09:30pm 17.2 14.2 4.2 42 6.2 SE 9 9 5 5 1016.3 1015.6 0.0
30/09:00pm 17.7 14.7 3.9 40 6.5 SSE 9 11 5 6 1016.1 1015.4 0.0
30/08:30pm 19.3 16.3 3.9 36 7.4 SSE 9 11 5 6 1016.0 1015.3 0.0
30/08:00pm 20.7 17.3 3.9 33 8.1 SSE 11 13 6 7 1015.9 1015.2 0.0
30/07:30pm 20.8 17.4 4.0 33 8.2 SSE 11 13 6 7 1015.9 1015.2 0.0
30/07:00pm 21.7 17.9 3.9 31 8.7 SSE 13 15 7 8 1015.8 1015.1 0.0
30/06:30pm 23.8 20.1 4.2 28 9.8 SSE 13 13 7 7 1015.5 1014.8 0.0
30/06:00pm 25.9 22.2 4.4 25 10.9 SSE 13 15 7 8 1015.3 1014.6 0.0
30/05:30pm 27.1 23.1 2.9 21 12.0 SSE 13 17 7 9 1014.7 1014.0 0.0
30/05:00pm 27.8 24.3 3.5 21 12.3 ESE 11 15 6 8 1014.7 1014.0 0.0
30/04:30pm 28.0 23.3 3.0 20 12.5 SE 17 24 9 13 1014.7 1014.0 0.0
30/04:00pm 28.0 23.1 2.2 19 12.7 S 17 24 9 13 1014.8 1014.1 0.0
30/03:30pm 28.7 24.4 3.5 20 12.8 SE 15 24 8 13 1014.8 1014.1 0.0
30/03:00pm 28.5 24.1 2.7 19 12.9 ESE 15 24 8 13 1015.2 1014.5 0.0
30/02:30pm 28.8 23.8 3.6 20 12.8 ESE 19 33 10 18 1015.5 1014.8 0.0
30/02:00pm 28.4 23.9 4.0 21 12.5 SE 17 33 9 18 1015.9 1015.2 0.0
30/01:30pm 28.5 24.1 4.7 22 12.3 SE 17 28 9 15 1016.7 1016.0 0.0
30/01:00pm 27.5 22.7 4.5 23 11.8 ESE 19 26 10 14 1017.1 1016.4 0.0
30/12:30pm 27.0 23.1 5.3 25 11.2 ESE 15 24 8 13 1017.8 1017.1 0.0
30/12:00pm 26.5 22.3 5.5 26 10.9 SE 17 30 9 16 1018.4 1017.7 0.0
30/11:30am 25.5 20.7 5.7 28 10.2 SSE 20 32 11 17 1019.1 1018.4 0.0
30/11:00am 26.4 21.5 6.9 29 10.3 SSE 22 33 12 18 1019.6 1019.0 0.0
30/10:30am 25.2 20.7 6.9 31 9.7 SE 20 37 11 20 1020.0 1019.4 0.0
30/10:00am 24.6 20.5 7.7 34 9.0 ESE 19 30 10 16 1020.4 1019.8 0.0
30/09:30am 24.3 19.4 8.3 36 8.6 ESE 24 33 13 18 1020.8 1020.1 0.0
30/09:00am 23.2 17.7 7.7 37 8.2 ESE 26 33 14 18 1020.7 1020.0 0.0
30/08:30am 22.2 17.7 8.7 42 7.2 ESE 22 28 12 15 1020.3 1019.7 0.0
30/08:00am 20.4 16.3 7.7 44 6.6 ESE 19 30 10 16 1020.1 1019.5 0.0
30/07:30am 17.2 13.0 7.5 53 4.9 ESE 19 24 10 13 1019.5 1018.9 0.0
30/07:00am 14.1 10.6 7.2 63 3.4 SE 15 17 8 9 1019.1 1018.4 0.0
30/06:30am 11.9 8.2 6.2 68 2.7 SE 15 17 8 9 1019.0 1018.3 0.0
30/06:00am 11.3 7.1 5.6 68 2.7 SE 17 20 9 11 1018.9 1018.2 0.0
30/05:30am 11.3 7.4 5.2 66 2.8 SE 15 19 8 10 1018.7 1018.0 0.0
30/05:00am 11.7 7.7 5.1 64 3.1 SE 15 19 8 10 1018.5 1017.8 0.0
30/04:30am 12.3 7.9 4.8 60 3.5 SE 17 19 9 10 1018.2 1017.5 0.0
30/04:00am 12.7 9.1 4.9 59 3.6 SE 13 15 7 8 1018.3 1017.6 0.0
30/03:30am 12.9 9.2 4.6 57 3.8 SSE 13 15 7 8 1018.3 1017.6 0.0
30/03:00am 13.0 9.3 4.4 56 4.0 SE 13 15 7 8 1018.4 1017.7 0.0
30/02:30am 12.6 8.5 4.1 56 3.9 SE 15 15 8 8 1018.4 1017.7 0.0
30/02:00am 12.7 9.0 4.4 57 3.8 SE 13 17 7 9 1018.6 1017.9 0.0
30/01:30am 12.3 8.9 3.8 56 3.8 SE 11 13 6 7 1018.9 1018.2 0.0
30/01:00am 13.7 10.3 4.0 52 4.5 SE 11 13 6 7 1019.0 1018.3 0.0
30/12:30am 13.9 10.5 3.9 51 4.6 SE 11 13 6 7 1018.9 1018.2 0.0
30/12:00am 14.4 11.0 3.8 49 4.9 SSE 11 13 6 7 1018.8 1018.1 0.0
 
Date/Time
EST
Temp
°C
App
Temp
°C
Dew
Point
°C
Rel
Hum
%
Delta-T
°C
Wind Press
QNH
hPa
Press
MSL
hPa
Rain since
9am
mm
Dir  Spd
km/h
Gust
km/h
Spd
kts
Gust
kts
29/11:30pm 14.9 11.4 3.7 47 5.2 SSE 11 11 6 6 1018.8 1018.1 0.0
29/11:00pm 14.8 11.4 3.9 48 5.0 SE 11 13 6 7 1018.8 1018.1 0.0
29/10:30pm 14.3 10.8 3.5 48 4.9 SE 11 11 6 6 1018.8 1018.1 0.0
29/10:00pm 14.5 11.3 3.3 47 5.1 SE 9 11 5 6 1018.9 1018.2 0.0
29/09:30pm 16.7 12.7 2.7 39 6.4 SE 13 13 7 7 1018.5 1017.8 0.0
29/09:00pm 17.4 14.1 2.6 37 6.8 SSE 9 11 5 6 1018.4 1017.7 0.0
29/08:30pm 18.3 14.6 2.6 35 7.3 SE 11 13 6 7 1018.0 1017.3 0.0
29/08:00pm 19.0 16.1 2.8 34 7.6 SSE 7 9 4 5 1017.7 1017.0 0.0
29/07:30pm 20.1 16.7 2.0 30 8.4 SSE 9 9 5 5 1017.4 1016.7 0.0
29/07:00pm 21.1 17.4 2.4 29 8.8 SSE 11 11 6 6 1017.1 1016.4 0.0
29/06:30pm 22.5 18.8 2.6 27 9.5 SSE 11 13 6 7 1016.8 1016.1 0.0
29/06:00pm 24.7 20.6 2.2 23 10.8 SSE 13 17 7 9 1016.3 1015.6 0.0
29/05:30pm 26.0 20.6 1.3 20 11.8 SSE 19 24 10 13 1016.1 1015.4 0.0
29/05:00pm 26.7 21.8 1.9 20 12.1 S 17 22 9 12 1016.0 1015.3 0.0
29/04:30pm 27.4 22.6 2.5 20 12.3 S 17 26 9 14 1015.9 1015.2 0.0
29/04:00pm 27.7 23.2 2.0 19 12.6 S 15 26 8 14 1015.8 1015.1 0.0
29/03:30pm 27.2 21.7 1.6 19 12.4 S 20 32 11 17 1016.0 1015.3 0.0
29/03:00pm 27.7 21.8 2.0 19 12.6 S 22 32 12 17 1016.0 1015.3 0.0
29/02:30pm 27.4 22.0 1.0 18 12.7 S 19 35 10 19 1016.4 1015.7 0.0
29/02:00pm 27.5 22.3 2.6 20 12.3 S 19 32 10 17 1016.9 1016.2 0.0
29/01:30pm 26.7 22.0 1.2 19 12.3 SSE 15 22 8 12 1017.3 1016.6 0.0
29/01:00pm 26.6 21.9 1.1 19 12.2 SSE 15 32 8 17 1017.8 1017.1 0.0
29/12:30pm 26.1 22.1 2.7 22 11.5 SSE 13 26 7 14 1018.1 1017.4 0.0
29/12:00pm 25.5 21.5 2.9 23 11.1 SSE 13 22 7 12 1018.6 1017.9 0.0
29/11:30am 24.9 20.7 1.7 22 11.1 S 13 30 7 16 1019.0 1018.3 0.0
29/11:00am 25.1 20.4 3.1 24 10.8 SE 17 30 9 16 1019.1 1018.4 0.0
29/10:30am 24.4 18.4 3.1 25 10.4 SE 24 30 13 16 1019.3 1018.6 0.0
29/10:00am 23.8 18.3 4.2 28 9.7 SE 22 30 12 16 1019.5 1018.9 0.0
29/09:30am 22.7 16.4 3.8 29 9.3 SE 26 33 14 18 1019.6 1019.0 0.0
29/09:00am 21.7 16.7 3.4 30 8.8 SE 19 30 10 16 1019.6 1019.0 0.0
29/08:30am 20.0 14.5 4.1 35 7.7 SSE 22 30 12 16 1019.6 1019.0 0.0
29/08:00am 18.3 13.9 4.5 40 6.6 SE 17 20 9 11 1019.5 1018.9 0.0
29/07:30am 15.5 12.2 4.6 48 5.2 SSE 11 15 6 8 1019.1 1018.4 0.0
29/07:00am 12.5 9.8 5.4 62 3.3 S 9 11 5 6 1018.8 1018.1 0.0
29/06:30am 10.7 7.8 4.8 67 2.7 S 9 11 5 6 1018.4 1017.7 0.0
29/06:00am 10.5 7.6 4.4 66 2.7 S 9 11 5 6 1017.9 1017.2 0.0
29/05:30am 11.0 8.5 4.5 64 3.0 S 7 9 4 5 1017.5 1016.8 0.0
29/05:00am 11.1 9.1 4.6 64 3.0 SSE 4 7 2 4 1017.1 1016.4 0.0
29/04:30am 11.5 10.3 4.7 63 3.1 CALM 0 0 0 0 1016.8 1016.1 0.0
29/04:00am 12.0 9.5 4.7 61 3.4 E 7 7 4 4 1016.6 1015.9 0.0
29/03:30am 12.9 10.3 4.3 56 4.0 SE 7 9 4 5 1016.5 1015.8 0.0
29/03:00am 13.9 10.9 4.2 52 4.5 SSE 9 9 5 5 1016.7 1016.0 0.0
29/02:30am 14.4 11.5 4.4 51 4.7 SSE 9 11 5 6 1016.9 1016.2 0.0
29/02:00am 15.6 12.2 4.0 46 5.4 SSE 11 13 6 7 1016.9 1016.2 0.0
29/01:30am 16.8 13.4 4.2 43 6.0 SSE 11 13 6 7 1017.1 1016.4 0.0
29/01:00am 17.7 13.0 3.2 38 6.8 SSE 17 20 9 11 1016.9 1016.2 0.0
29/12:30am 18.3 13.2 4.1 39 6.8 S 20 28 11 15 1016.8 1016.1 0.0
29/12:00am 18.0 14.9 7.1 49 5.5 SSW 13 17 7 9 1016.8 1016.1 0.0
 
Date/Time
EST
Temp
°C
App
Temp
°C
Dew
Point
°C
Rel
Hum
%
Delta-T
°C
Wind Press
QNH
hPa
Press
MSL
hPa
Rain since
9am
mm
Dir  Spd
km/h
Gust
km/h
Spd
kts
Gust
kts
28/11:30pm 17.7 17.5 9.1 57 4.5 CALM 0 0 0 0 1016.8 1016.1 0.0
28/11:00pm 17.1 16.9 9.0 59 4.2 CALM 0 0 0 0 1016.7 1016.0 0.0
28/10:30pm 17.0 16.9 9.4 61 4.0 CALM 0 0 0 0 1016.5 1015.8 0.0
28/10:00pm 17.5 17.4 9.4 59 4.3 CALM 0 0 0 0 1016.3 1015.6 0.0
28/09:30pm 19.5 17.5 8.8 50 5.6 SSE 9 11 5 6 1016.3 1015.6 0.0
28/09:00pm 19.9 18.3 8.6 48 5.9 S 7 9 4 5 1016.7 1016.0 0.0
28/08:30pm 20.3 18.2 8.3 46 6.3 S 9 11 5 6 1017.0 1016.3 0.0
28/08:00pm 20.0 18.0 8.7 48 6.0 S 9 11 5 6 1016.5 1015.8 0.0
28/07:30pm 21.0 19.0 8.6 45 6.6 SSW 9 11 5 6 1016.5 1015.8 0.0
28/07:00pm 21.3 19.3 8.6 44 6.7 SSW 9 13 5 7 1015.7 1015.0 0.0
28/06:30pm 21.8 19.4 8.7 43 7.0 SSW 11 13 6 7 1015.3 1014.6 0.0
28/06:00pm 22.8 20.7 8.1 39 7.8 SSW 9 13 5 7 1014.8 1014.1 0.0
28/05:30pm 23.3 23.1 9.0 40 7.7 CALM 0 7 0 4 1014.6 1013.9 0.0
28/05:00pm 23.8 23.0 8.2 37 8.3 SE 2 7 1 4 1014.5 1013.8 0.0
28/04:30pm 24.1 23.7 8.1 36 8.6 CALM 0 0 0 0 1014.6 1013.9 0.0
28/04:00pm 24.3 23.4 7.9 35 8.8 E 2 9 1 5 1014.5 1013.8 0.0
28/03:30pm 24.3 22.8 8.3 36 8.6 W 6 7 3 4 1014.6 1013.9 0.0
28/03:00pm 24.4 22.7 7.5 34 9.0 WSW 6 19 3 10 1014.7 1014.0 0.0
28/02:30pm 24.5 23.9 8.9 37 8.5 NE 2 7 1 4 1014.8 1014.1 0.0
28/02:00pm 24.3 22.2 8.3 36 8.6 WSW 9 13 5 7 1015.7 1015.0 0.0
28/01:30pm 24.7 23.1 8.2 35 8.9 WNW 6 9 3 5 1015.6 1014.9 0.0
28/01:00pm 24.5 22.5 8.5 36 8.6 WSW 9 15 5 8 1015.9 1015.2 0.0

Other formats

Comma delimited format used in spreadsheet applications
http://www.bom.gov.au/fwo/IDQ60801/IDQ60801.94346.axf

JavaScript Object Notation format (JSON) in row-major order
http://www.bom.gov.au/fwo/IDQ60801/IDQ60801.94346.json

Data quality

Most of these data are generated automatically and are frequently updated. Quality checks on data are not normally performed. It is possible for incorrect values to appear. Refer to information at About Latest Weather Observations and please check the disclaimer before using these data.